Time;durP1;ratioP1;P1;durP2;ratioP2;P2;SDS_P1;SDS_P2;PMS_P1;PMS_P2;Temp;Humidity;BMP_temperature;BMP_pressure;BME280_temperature;BME280_humidity;BME280_pressure;Samples;Min_cycle;Max_cycle;Signal;HPM_P1;HPM_P2
2022/11/15 00:00:25;;;;;;;;;;;;;;;13.66;70.03;102256.09;5057327;28;19919;-87
2022/11/15 00:02:52;;;;;;;;;;;;;;;13.65;69.90;102256.88;5065705;28;20345;-88
2022/11/15 00:05:17;;;;;;;;;;;;;;;13.63;70.10;102255.88;5063326;28;19916;-87
2022/11/15 00:07:43;;;;;;;;;;;;;;;13.65;70.02;102254.25;5075517;28;20496;-87
2022/11/15 00:10:08;;;;;;;;;;;;;;;13.66;70.05;102252.56;5081065;28;20448;-87
2022/11/15 00:12:34;;;;;;;;;;;;;;;13.62;70.00;102246.19;5062858;28;20404;-88
2022/11/15 00:14:59;;;;;;;;;;;;;;;13.66;70.10;102250.84;5063144;28;19913;-87
2022/11/15 00:17:24;;;;;;;;;;;;;;;13.63;69.87;102251.53;5070953;28;20003;-85
2022/11/15 00:19:50;;;;;;;;;;;;;;;13.59;70.00;102249.53;5077776;28;20333;-85
2022/11/15 00:22:15;;;;;;;;;;;;;;;13.61;70.06;102247.91;5081465;28;20320;-85
2022/11/15 00:24:41;;;;;;;;;;;;;;;13.58;70.15;102244.16;5080015;28;19915;-87
2022/11/15 00:27:06;;;;;;;;;;;;;;;13.61;70.19;102241.75;5073853;28;19919;-86
2022/11/15 00:29:31;;;;;;;;;;;;;;;13.60;70.00;102239.94;5072148;28;20346;-86
2022/11/15 00:31:57;;;;;;;;;;;;;;;13.60;70.29;102232.06;5055188;28;20458;-87
2022/11/15 00:34:22;;;;;;;;;;;;;;;13.60;70.29;102232.97;5054741;28;20409;-86
2022/11/15 00:36:48;;;;;;;;;;;;;;;13.59;70.10;102219.75;5084284;28;19916;-86
2022/11/15 00:39:16;;;;;;;;;;;;;;;13.60;70.12;102222.44;5066360;28;20397;-86
2022/11/15 00:41:41;;;;;;;;;;;;;;;13.59;70.17;102225.00;5058567;28;19918;-86
2022/11/15 00:44:07;;;;;;;;;;;;;;;13.59;70.24;102217.13;5054895;28;19916;-86
2022/11/15 00:46:32;;;;;;;;;;;;;;;13.59;70.14;102217.13;5069845;28;19920;-85
2022/11/15 00:48:58;;;;;;;;;;;;;;;13.60;70.12;102216.31;5068804;28;22176;-86
2022/11/15 00:51:23;;;;;;;;;;;;;;;13.59;70.08;102207.53;5075860;28;19942;-87
2022/11/15 00:53:49;;;;;;;;;;;;;;;13.61;70.15;102211.16;5066784;28;19971;-87
2022/11/15 00:56:14;;;;;;;;;;;;;;;13.60;70.13;102211.97;5053173;28;19919;-89
2022/11/15 00:58:39;;;;;;;;;;;;;;;13.59;70.25;102209.25;5071638;28;20419;-86
2022/11/15 01:01:06;;;;;;;;;;;;;;;13.58;70.11;102202.16;5072463;28;19942;-87
2022/11/15 01:03:32;;;;;;;;;;;;;;;13.59;70.25;102204.00;5076893;28;19912;-85
2022/11/15 01:06:01;;;;;;;;;;;;;;;13.61;70.18;102205.00;5080222;28;19928;-85
2022/11/15 01:08:26;;;;;;;;;;;;;;;13.58;70.02;102199.53;5078939;28;19967;-86
2022/11/15 01:10:52;;;;;;;;;;;;;;;13.60;70.00;102201.44;5076602;28;19951;-85
2022/11/15 01:13:17;;;;;;;;;;;;;;;13.60;70.04;102198.84;5072721;28;19962;-85
2022/11/15 01:15:43;;;;;;;;;;;;;;;13.62;69.91;102199.84;5077262;28;19951;-85
2022/11/15 01:18:09;;;;;;;;;;;;;;;13.58;70.07;102192.56;5071748;28;20464;-85
2022/11/15 01:20:34;;;;;;;;;;;;;;;13.60;70.31;102198.84;5076002;28;20045;-85
2022/11/15 01:23:00;;;;;;;;;;;;;;;13.63;69.86;102196.41;5083795;28;19941;-85
2022/11/15 01:25:26;;;;;;;;;;;;;;;13.61;69.93;102198.03;5078536;28;19911;-85
2022/11/15 01:27:51;;;;;;;;;;;;;;;13.56;70.16;102191.56;5076549;28;20412;-84
2022/11/15 01:30:17;;;;;;;;;;;;;;;13.57;70.22;102195.13;5054828;28;20381;-86
2022/11/15 01:32:42;;;;;;;;;;;;;;;13.58;70.04;102192.56;5084657;28;20400;-85
2022/11/15 01:35:07;;;;;;;;;;;;;;;13.56;70.10;102188.03;5069772;28;20352;-85
2022/11/15 01:37:33;;;;;;;;;;;;;;;13.66;69.66;102192.19;5071672;28;20283;-85
2022/11/15 01:39:58;;;;;;;;;;;;;;;13.61;69.98;102190.16;5071373;28;20355;-84
2022/11/15 01:42:24;;;;;;;;;;;;;;;13.63;70.00;102190.25;5080244;28;20374;-85
2022/11/15 01:44:50;;;;;;;;;;;;;;;13.61;69.91;102190.16;5070879;28;19934;-85
2022/11/15 01:47:18;;;;;;;;;;;;;;;13.57;70.11;102180.28;5074789;28;19958;-86
2022/11/15 01:49:57;;;;;;;;;;;;;;;13.55;69.96;102181.88;5077967;28;19916;-85
2022/11/15 01:52:24;;;;;;;;;;;;;;;13.54;70.17;102173.91;5081099;28;19912;-85
2022/11/15 01:54:50;;;;;;;;;;;;;;;13.53;70.29;102180.88;5062223;28;20309;-85
2022/11/15 01:57:16;;;;;;;;;;;;;;;13.57;70.12;102179.38;5083468;28;19912;-85
2022/11/15 01:59:42;;;;;;;;;;;;;;;13.54;70.04;102179.16;5069942;28;19920;-86
2022/11/15 02:02:07;;;;;;;;;;;;;;;13.52;70.25;102184.31;5084727;28;19923;-86
2022/11/15 02:04:34;;;;;;;;;;;;;;;13.52;70.32;102180.78;5070652;28;19920;-86
2022/11/15 02:06:59;;;;;;;;;;;;;;;13.51;70.31;102185.13;5070262;28;19955;-84
2022/11/15 02:09:25;;;;;;;;;;;;;;;13.50;70.29;102185.91;5053329;28;19924;-86
2022/11/15 02:11:50;;;;;;;;;;;;;;;13.53;70.00;102186.13;5070420;28;19915;-86
2022/11/15 02:14:16;;;;;;;;;;;;;;;13.55;70.08;102175.75;5066443;28;20359;-85
2022/11/15 02:17:00;;;;;;;;;;;;;;;13.53;69.83;102180.88;5063569;28;19912;-85
2022/11/15 02:19:31;;;;;;;;;;;;;;;13.51;70.25;102178.97;5071465;28;20415;-85
2022/11/15 02:22:05;;;;;;;;;;;;;;;13.50;70.13;102178.03;5070262;28;20442;-85
2022/11/15 02:24:51;;;;;;;;;;;;;;;13.53;70.03;102172.09;5076273;28;19912;-87
2022/11/15 02:27:16;;;;;;;;;;;;;;;13.52;70.09;102171.19;5092261;28;19912;-86
2022/11/15 02:29:51;;;;;;;;;;;;;;;13.47;70.32;102164.75;5097133;28;19920;-85
2022/11/15 02:32:25;;;;;;;;;;;;;;;13.48;70.25;102169.16;5087035;28;19920;-86
2022/11/15 02:34:51;;;;;;;;;;;;;;;13.51;70.02;102164.13;5062646;28;19926;-85
2022/11/15 02:37:25;;;;;;;;;;;;;;;13.49;70.06;102168.38;5076107;28;19916;-85
2022/11/15 02:40:11;;;;;;;;;;;;;;;13.44;70.25;102161.94;5080831;28;19934;-86
2022/11/15 02:45:30;;;;;;;;;;;;;;;13.48;70.02;102157.75;5068699;28;20337;-85
2022/11/15 02:47:57;;;;;;;;;;;;;;;13.47;70.06;102155.97;5075602;28;19920;-86
2022/11/15 02:50:24;;;;;;;;;;;;;;;13.50;70.12;102153.53;5068674;28;19917;-87
2022/11/15 02:52:50;;;;;;;;;;;;;;;13.49;70.10;102152.63;5058899;28;19955;-87
2022/11/15 02:55:26;;;;;;;;;;;;;;;13.46;70.34;102147.16;5073527;28;19947;-86
2022/11/15 02:57:52;;;;;;;;;;;;;;;13.48;70.27;102148.16;5074142;28;20008;-86
2022/11/15 03:00:18;;;;;;;;;;;;;;;13.48;70.01;102152.50;5068801;28;19923;-87
2022/11/15 03:03:02;;;;;;;;;;;;;;;13.49;70.09;102150.00;5053652;28;19962;-85
2022/11/15 03:05:37;;;;;;;;;;;;;;;13.47;69.95;102148.09;5077961;28;19923;-85
2022/11/15 03:08:07;;;;;;;;;;;;;;;13.45;70.26;102142.75;5070949;28;19916;-85
2022/11/15 03:10:51;;;;;;;;;;;;;;;13.43;70.16;102137.38;5059833;28;19923;-85
2022/11/15 03:13:36;;;;;;;;;;;;;;;13.42;70.42;102135.59;5071208;28;20374;-85
2022/11/15 03:16:15;;;;;;;;;;;;;;;13.44;70.31;102148.81;5040345;28;19969;-85
2022/11/15 03:18:41;;;;;;;;;;;;;;;13.46;70.19;102147.16;5058064;28;19915;-85
2022/11/15 03:21:07;;;;;;;;;;;;;;;13.46;70.26;102135.75;5061292;28;19912;-87
2022/11/15 03:23:33;;;;;;;;;;;;;;;13.41;70.31;102146.88;5054202;28;19939;-86
2022/11/15 03:25:59;;;;;;;;;;;;;;;13.41;70.50;102143.34;5070448;28;19912;-86
2022/11/15 03:28:26;;;;;;;;;;;;;;;13.42;70.24;102132.97;5079085;28;19919;-86
2022/11/15 03:30:52;;;;;;;;;;;;;;;13.42;70.05;102130.34;5073149;28;19913;-85
2022/11/15 03:33:17;;;;;;;;;;;;;;;13.38;70.38;102130.94;5060306;28;19920;-86
2022/11/15 03:35:43;;;;;;;;;;;;;;;13.41;70.36;102132.84;5051909;28;19909;-87
2022/11/15 03:38:11;;;;;;;;;;;;;;;13.44;70.04;102138.31;5082384;28;20365;-87
2022/11/15 03:40:41;;;;;;;;;;;;;;;13.41;70.13;102132.84;5079837;28;19919;-87
2022/11/15 03:43:10;;;;;;;;;;;;;;;13.40;70.25;102126.69;5077518;28;20007;-87
2022/11/15 03:45:37;;;;;;;;;;;;;;;13.45;70.20;102127.00;5067512;28;19912;-86
2022/11/15 03:48:07;;;;;;;;;;;;;;;13.46;70.02;102125.25;5074094;28;19943;-86
2022/11/15 03:50:33;;;;;;;;;;;;;;;13.49;70.06;102123.75;5079739;28;19962;-86
2022/11/15 03:52:58;;;;;;;;;;;;;;;13.41;70.10;102112.75;5073139;28;19912;-86
2022/11/15 03:55:23;;;;;;;;;;;;;;;13.47;69.96;102119.22;5084409;28;20297;-87
2022/11/15 03:57:50;;;;;;;;;;;;;;;13.42;70.05;102116.31;5076048;28;19923;-86
2022/11/15 04:00:15;;;;;;;;;;;;;;;13.41;70.31;102117.09;5072520;28;19919;-87
2022/11/15 04:02:41;;;;;;;;;;;;;;;13.41;70.26;102114.47;5075129;28;19938;-87
2022/11/15 04:05:06;;;;;;;;;;;;;;;13.39;70.30;102116.09;5074865;28;19951;-87
2022/11/15 04:07:32;;;;;;;;;;;;;;;13.44;70.13;102109.44;5058874;28;19974;-86
2022/11/15 04:10:03;;;;;;;;;;;;;;;13.43;70.26;102105.88;5060625;28;19943;-86
2022/11/15 04:12:40;;;;;;;;;;;;;;;13.42;70.03;102105.81;5069497;28;20382;-86
2022/11/15 04:15:10;;;;;;;;;;;;;;;13.47;70.10;102111.34;5081572;28;20604;-86
2022/11/15 04:17:36;;;;;;;;;;;;;;;13.41;70.13;102099.63;5067362;28;20002;-86
2022/11/15 04:25:31;;;;;;;;;;;;;;;13.42;70.02;102103.19;5074648;28;20392;-88
2022/11/15 04:27:56;;;;;;;;;;;;;;;13.36;70.30;102098.44;5071914;28;19909;-88
2022/11/15 04:30:22;;;;;;;;;;;;;;;13.39;70.14;102095.09;5072282;28;20339;-87
2022/11/15 04:32:47;;;;;;;;;;;;;;;13.35;70.21;102098.34;5073176;28;19994;-86
2022/11/15 04:35:13;;;;;;;;;;;;;;;13.36;70.04;102097.56;5073274;28;19945;-87
2022/11/15 04:37:38;;;;;;;;;;;;;;;13.35;70.27;102100.97;5072366;28;20383;-86
2022/11/15 04:40:04;;;;;;;;;;;;;;;13.35;70.22;102100.97;5048702;28;19912;-87
2022/11/15 04:42:29;;;;;;;;;;;;;;;13.35;70.34;102095.72;5055575;28;20365;-86
2022/11/15 04:44:55;;;;;;;;;;;;;;;13.38;70.28;102098.56;5071788;28;19908;-86
2022/11/15 04:47:21;;;;;;;;;;;;;;;13.35;70.19;102093.09;5073241;28;20009;-86
2022/11/15 04:49:46;;;;;;;;;;;;;;;13.37;70.34;102096.72;5070939;28;19947;-86
2022/11/15 04:52:13;;;;;;;;;;;;;;;13.38;70.09;102095.94;5071596;28;20411;-87
2022/11/15 04:54:38;;;;;;;;;;;;;;;13.35;70.19;102096.63;5070987;28;19927;-86
2022/11/15 04:57:03;;;;;;;;;;;;;;;13.40;69.91;102104.81;5071767;28;19909;-87
2022/11/15 04:59:29;;;;;;;;;;;;;;;13.33;70.42;102105.22;5083798;28;20325;-87
2022/11/15 05:01:54;;;;;;;;;;;;;;;13.35;70.34;102107.13;5071638;28;20378;-86
2022/11/15 05:04:20;;;;;;;;;;;;;;;13.37;69.91;102102.88;5072120;28;19909;-87
2022/11/15 05:07:09;;;;;;;;;;;;;;;13.41;69.99;102109.22;5073612;28;19928;-87
2022/11/15 05:09:34;;;;;;;;;;;;;;;13.39;69.79;102108.22;5059859;28;19927;-87
2022/11/15 05:12:00;;;;;;;;;;;;;;;13.35;70.17;102103.59;5071622;28;19913;-87
2022/11/15 05:14:25;;;;;;;;;;;;;;;13.38;70.20;102098.56;5071066;28;20023;-87
2022/11/15 05:16:51;;;;;;;;;;;;;;;13.33;70.17;102097.34;5081810;28;20540;-88
2022/11/15 05:19:16;;;;;;;;;;;;;;;13.33;70.21;102092.09;5071955;28;20381;-87
2022/11/15 05:21:41;;;;;;;;;;;;;;;13.31;70.16;102096.31;5071180;28;19931;-86
2022/11/15 05:24:08;;;;;;;;;;;;;;;13.33;70.40;102094.72;5061574;28;20375;-88
2022/11/15 05:26:35;;;;;;;;;;;;;;;13.34;70.46;102099.16;5082251;28;19912;-87
2022/11/15 05:29:02;;;;;;;;;;;;;;;13.34;70.11;102107.03;5071980;28;19920;-84
2022/11/15 05:31:27;;;;;;;;;;;;;;;13.38;70.01;102106.44;5070707;28;19912;-88
2022/11/15 05:33:53;;;;;;;;;;;;;;;13.32;70.30;102100.78;5070376;28;19931;-88
2022/11/15 05:36:41;;;;;;;;;;;;;;;13.33;70.16;102097.34;5070927;28;19916;-88
2022/11/15 05:39:06;;;;;;;;;;;;;;;13.34;70.16;102099.16;5071261;28;19908;-89
2022/11/15 05:41:48;;;;;;;;;;;;;;;13.30;70.00;102092.81;5071091;28;19913;-86
2022/11/15 05:44:13;;;;;;;;;;;;;;;13.35;69.93;102098.34;5058857;28;19912;-86
2022/11/15 05:46:39;;;;;;;;;;;;;;;13.34;70.14;102104.41;5053600;28;19912;-86
2022/11/15 05:49:05;;;;;;;;;;;;;;;13.33;70.02;102100.84;5070713;28;19908;-84
2022/11/15 05:51:30;;;;;;;;;;;;;;;13.34;69.97;102105.31;5070494;28;20370;-84
2022/11/15 05:53:56;;;;;;;;;;;;;;;13.27;70.17;102110.94;5070539;28;19963;-84
2022/11/15 05:56:22;;;;;;;;;;;;;;;13.29;70.12;102108.44;5070953;28;20006;-86
2022/11/15 05:58:47;;;;;;;;;;;;;;;13.32;70.17;102106.03;5071159;28;19909;-87
2022/11/15 06:01:12;;;;;;;;;;;;;;;13.27;70.23;102117.88;5064010;28;19916;-87
2022/11/15 06:03:38;;;;;;;;;;;;;;;13.29;70.15;102114.59;5066485;28;20381;-87
2022/11/15 06:06:03;;;;;;;;;;;;;;;13.33;69.86;102124.47;5070057;28;19977;-88
2022/11/15 06:08:29;;;;;;;;;;;;;;;13.29;70.17;102121.56;5067311;28;20412;-86
2022/11/15 06:10:54;;;;;;;;;;;;;;;13.28;70.29;102123.25;5058710;28;20003;-86
2022/11/15 06:13:19;;;;;;;;;;;;;;;13.24;70.36;102122.13;5069999;28;19916;-86
2022/11/15 06:15:45;;;;;;;;;;;;;;;13.33;70.11;102126.19;5069300;28;19912;-86
2022/11/15 06:18:10;;;;;;;;;;;;;;;13.30;70.06;102120.75;5069021;28;19932;-86
2022/11/15 06:20:36;;;;;;;;;;;;;;;13.32;70.02;102134.91;5067715;28;19927;-86
2022/11/15 06:23:02;;;;;;;;;;;;;;;13.21;70.19;102127.19;5068749;28;19915;-85
2022/11/15 06:25:28;;;;;;;;;;;;;;;13.27;70.26;102123.13;5067665;28;19912;-86
2022/11/15 06:27:54;;;;;;;;;;;;;;;13.21;70.62;102123.66;5068655;28;20010;-85
2022/11/15 06:30:19;;;;;;;;;;;;;;;13.21;70.26;102131.53;5069836;28;19919;-85
2022/11/15 06:32:45;;;;;;;;;;;;;;;13.16;70.50;102132.94;5069083;28;19912;-85
2022/11/15 06:35:10;;;;;;;;;;;;;;;13.16;70.29;102132.94;5069536;28;19923;-85
2022/11/15 06:37:35;;;;;;;;;;;;;;;13.22;70.42;102128.09;5085716;28;19913;-86
2022/11/15 06:40:01;;;;;;;;;;;;;;;13.14;70.50;102121.44;5068070;28;20301;-86
2022/11/15 06:42:26;;;;;;;;;;;;;;;13.13;70.68;102120.53;5063185;28;20011;-86
2022/11/15 06:44:52;;;;;;;;;;;;;;;13.09;70.77;102123.75;5069048;28;20515;-85
2022/11/15 06:47:17;;;;;;;;;;;;;;;13.12;70.83;102117.81;5068672;28;20464;-86
2022/11/15 06:49:43;;;;;;;;;;;;;;;13.12;70.85;102113.50;5068500;28;20401;-86
2022/11/15 06:52:08;;;;;;;;;;;;;;;13.11;70.76;102111.66;5068521;28;19912;-86
2022/11/15 06:54:33;;;;;;;;;;;;;;;13.09;70.64;102112.38;5086622;28;20286;-86
2022/11/15 06:56:59;;;;;;;;;;;;;;;13.14;70.45;102108.31;5065550;28;19912;-86
2022/11/15 06:59:24;;;;;;;;;;;;;;;13.17;70.31;102093.69;5053069;28;20377;-85
2022/11/15 07:01:50;;;;;;;;;;;;;;;13.10;70.87;102101.06;5067660;28;19916;-87
2022/11/15 07:04:15;;;;;;;;;;;;;;;13.07;70.86;102093.91;5070276;28;19908;-86
2022/11/15 07:06:40;;;;;;;;;;;;;;;13.14;70.47;102098.72;5069916;28;19908;-86
2022/11/15 07:09:06;;;;;;;;;;;;;;;13.06;70.92;102099.97;5054190;28;20374;-86
2022/11/15 07:11:32;;;;;;;;;;;;;;;13.10;71.09;102107.25;5069416;28;20431;-86
2022/11/15 07:13:58;;;;;;;;;;;;;;;13.08;70.86;102107.91;5070575;28;19970;-86
2022/11/15 07:16:23;;;;;;;;;;;;;;;13.12;70.79;102104.69;5073314;28;19908;-86
2022/11/15 07:18:48;;;;;;;;;;;;;;;13.13;70.67;102111.78;5084196;28;19962;-86
2022/11/15 07:21:14;;;;;;;;;;;;;;;13.09;70.73;102109.75;5074357;28;20447;-85
2022/11/15 07:23:39;;;;;;;;;;;;;;;13.08;70.85;102115.78;5068684;28;20405;-82
2022/11/15 07:26:05;;;;;;;;;;;;;;;13.06;71.03;102109.53;5070004;28;19915;-83
2022/11/15 07:28:31;;;;;;;;;;;;;;;13.07;70.74;102100.88;5063509;28;19916;-84
2022/11/15 07:30:56;;;;;;;;;;;;;;;13.02;71.16;102101.47;5077028;28;19930;-84
2022/11/15 07:33:22;;;;;;;;;;;;;;;13.08;70.82;102103.59;5066781;28;20447;-84
2022/11/15 07:35:50;;;;;;;;;;;;;;;13.02;71.08;102105.81;5073006;28;19908;-84
2022/11/15 07:38:19;;;;;;;;;;;;;;;13.04;71.00;102104.22;5046215;28;19982;-84
2022/11/15 07:40:46;;;;;;;;;;;;;;;13.13;70.75;102104.78;5067492;28;19930;-84
2022/11/15 07:43:11;;;;;;;;;;;;;;;12.99;71.09;102097.75;5068237;28;19914;-84
2022/11/15 07:45:40;;;;;;;;;;;;;;;13.03;71.01;102095.41;5065471;28;19908;-83
2022/11/15 07:48:05;;;;;;;;;;;;;;;13.12;70.91;102096.81;5073317;28;20540;-83
2022/11/15 07:50:31;;;;;;;;;;;;;;;13.08;71.02;102097.44;5081033;28;19909;-83
2022/11/15 07:52:57;;;;;;;;;;;;;;;13.13;70.98;102093.41;5063782;28;19915;-85
2022/11/15 07:55:23;;;;;;;;;;;;;;;13.13;70.70;102093.41;5062504;28;19966;-83
2022/11/15 07:57:48;;;;;;;;;;;;;;;13.07;71.07;102088.66;5058022;28;19919;-83
2022/11/15 08:00:14;;;;;;;;;;;;;;;13.05;70.97;102092.91;5072446;28;19908;-82
2022/11/15 08:02:39;;;;;;;;;;;;;;;13.02;71.01;102093.63;5064333;28;20411;-83
2022/11/15 08:05:05;;;;;;;;;;;;;;;13.07;70.93;102086.03;5068531;28;20404;-83
2022/11/15 08:07:31;;;;;;;;;;;;;;;13.11;70.97;102088.06;5054503;28;20439;-83
2022/11/15 08:09:56;;;;;;;;;;;;;;;13.16;70.90;102088.34;5059822;28;20370;-83
2022/11/15 08:12:22;;;;;;;;;;;;;;;13.08;70.99;102092.19;5067113;28;19916;-83
2022/11/15 08:14:48;;;;;;;;;;;;;;;13.13;70.91;102086.44;5065857;28;19920;-84
2022/11/15 08:17:13;;;;;;;;;;;;;;;13.09;70.91;102083.53;5069723;28;19962;-84
2022/11/15 08:19:39;;;;;;;;;;;;;;;13.11;70.85;102082.81;5074691;28;19960;-84
2022/11/15 08:22:04;;;;;;;;;;;;;;;13.02;71.33;102080.50;5072290;28;20404;-86
2022/11/15 08:24:30;;;;;;;;;;;;;;;13.05;71.02;102077.16;5072902;28;19908;-85
2022/11/15 08:26:55;;;;;;;;;;;;;;;13.11;70.84;102082.81;5069122;28;20302;-85
2022/11/15 08:29:20;;;;;;;;;;;;;;;13.12;70.91;102078.47;5065779;28;19909;-85
2022/11/15 08:31:46;;;;;;;;;;;;;;;13.10;71.04;102077.44;5072078;28;19908;-85
2022/11/15 08:34:11;;;;;;;;;;;;;;;13.15;71.07;102066.47;5073273;28;19912;-84
2022/11/15 08:36:37;;;;;;;;;;;;;;;13.23;70.52;102066.97;5073063;28;20373;-84
2022/11/15 08:39:02;;;;;;;;;;;;;;;13.21;70.69;102066.84;5064075;28;19908;-83
2022/11/15 08:41:32;;;;;;;;;;;;;;;13.18;70.55;102066.66;5053026;28;20504;-83
2022/11/15 08:43:58;;;;;;;;;;;;;;;13.22;70.50;102062.50;5057937;28;19933;-85
2022/11/15 08:46:23;;;;;;;;;;;;;;;13.23;70.57;102062.63;5073016;28;20011;-85
2022/11/15 08:48:48;;;;;;;;;;;;;;;13.23;70.48;102061.72;5071650;28;19965;-85
2022/11/15 08:51:14;;;;;;;;;;;;;;;13.26;70.43;102063.63;5088726;28;20305;-84
2022/11/15 08:53:39;;;;;;;;;;;;;;;13.31;70.01;102067.47;5072685;28;20374;-84
2022/11/15 08:56:08;;;;;;;;;;;;;;;13.29;70.15;102056.88;5071968;28;19943;-83
2022/11/15 08:58:34;;;;;;;;;;;;;;;13.26;70.47;102056.66;5072636;28;20005;-85
2022/11/15 09:00:59;;;;;;;;;;;;;;;13.33;70.13;102053.63;5071818;28;19908;-85
2022/11/15 09:03:25;;;;;;;;;;;;;;;13.39;70.06;102054.03;5072847;28;19915;-85
2022/11/15 09:05:54;;;;;;;;;;;;;;;13.35;70.02;102045.88;5072779;28;20413;-85
2022/11/15 09:08:19;;;;;;;;;;;;;;;13.34;70.03;102042.34;5071509;28;20027;-85
2022/11/15 09:10:45;;;;;;;;;;;;;;;13.35;70.20;102043.25;5055024;28;20394;-84
2022/11/15 09:13:10;;;;;;;;;;;;;;;13.33;70.07;102035.25;5071510;28;20439;-84
2022/11/15 09:15:36;;;;;;;;;;;;;;;13.31;70.11;102034.25;5072490;28;20003;-85
2022/11/15 09:18:01;;;;;;;;;;;;;;;13.32;70.24;102028.22;5072243;28;19915;-84
2022/11/15 09:20:27;;;;;;;;;;;;;;;13.33;70.26;102023.88;5072595;28;19914;-84
2022/11/15 09:22:52;;;;;;;;;;;;;;;13.30;70.39;102023.69;5070990;28;20029;-85
2022/11/15 09:25:17;;;;;;;;;;;;;;;13.36;70.05;102017.13;5072299;28;20316;-84
2022/11/15 09:27:43;;;;;;;;;;;;;;;13.26;70.33;102017.31;5071072;28;20365;-84
2022/11/15 09:30:08;;;;;;;;;;;;;;;13.29;70.30;102011.38;5072446;28;20393;-85
2022/11/15 09:32:34;;;;;;;;;;;;;;;13.29;70.32;102009.66;5062087;28;20341;-84
2022/11/15 09:34:59;;;;;;;;;;;;;;;13.30;70.38;102011.47;5066152;28;19912;-83
2022/11/15 09:37:25;;;;;;;;;;;;;;;13.35;70.17;102007.41;5059734;28;20366;-83
2022/11/15 09:39:50;;;;;;;;;;;;;;;13.32;70.33;102006.34;5071920;28;19908;-84
2022/11/15 09:42:45;;;;;;;;;;;;;;;13.29;70.35;102001.78;5071193;28;20300;-84
2022/11/15 09:45:14;;;;;;;;;;;;;;;13.30;70.34;101993.13;5014805;28;20374;-84
2022/11/15 09:47:52;;;;;;;;;;;;;;;13.28;70.55;101996.41;5060978;28;19912;-84
2022/11/15 09:50:20;;;;;;;;;;;;;;;13.32;70.35;101988.88;5053874;28;20378;-84
2022/11/15 09:52:46;;;;;;;;;;;;;;;13.30;70.33;101986.97;5070806;28;19908;-84
2022/11/15 09:55:13;;;;;;;;;;;;;;;13.33;70.43;101985.41;5070365;28;19937;-85
2022/11/15 09:57:48;;;;;;;;;;;;;;;13.32;70.25;101980.09;5070713;28;19912;-84
2022/11/15 10:00:21;;;;;;;;;;;;;;;13.30;70.44;101985.25;5076394;28;19908;-85
2022/11/15 10:03:06;;;;;;;;;;;;;;;13.35;70.26;101982.91;5053921;28;20347;-85
2022/11/15 10:05:32;;;;;;;;;;;;;;;13.37;70.04;101976.94;5070167;28;19908;-85
2022/11/15 10:07:57;;;;;;;;;;;;;;;13.32;70.48;101975.75;5071907;28;19915;-85
2022/11/15 10:10:43;;;;;;;;;;;;;;;13.36;70.19;101969.88;5071440;28;19923;-85
2022/11/15 10:13:15;;;;;;;;;;;;;;;13.46;69.82;101970.44;5051335;28;19913;-85
2022/11/15 10:15:41;;;;;;;;;;;;;;;13.34;70.24;101963.63;5065776;28;19938;-85
2022/11/15 10:18:13;;;;;;;;;;;;;;;13.29;70.63;101970.28;5067711;28;19940;-85
2022/11/15 10:20:41;;;;;;;;;;;;;;;13.36;70.46;101966.34;5060625;28;20373;-85
2022/11/15 10:23:07;;;;;;;;;;;;;;;13.37;70.23;101962.91;5070241;28;19926;-84
2022/11/15 10:25:33;;;;;;;;;;;;;;;13.35;70.28;101960.19;5070258;28;20266;-85
2022/11/15 10:28:09;;;;;;;;;;;;;;;13.36;70.43;101955.88;5069492;28;19995;-85
2022/11/15 10:30:39;;;;;;;;;;;;;;;13.39;70.39;101951.69;5075213;28;19916;-85
2022/11/15 10:33:12;;;;;;;;;;;;;;;13.42;70.22;101953.63;5071231;28;20351;-85
2022/11/15 10:35:37;;;;;;;;;;;;;;;13.39;70.19;101948.16;5070334;28;20366;-84
2022/11/15 10:38:07;;;;;;;;;;;;;;;13.45;69.98;101935.44;5071753;28;19915;-84
2022/11/15 10:40:33;;;;;;;;;;;;;;;13.43;70.07;101935.31;5073286;28;19908;-84
2022/11/15 10:43:10;;;;;;;;;;;;;;;13.40;70.09;101935.16;5058115;28;20371;-84
2022/11/15 10:45:36;;;;;;;;;;;;;;;13.40;70.09;101931.63;5069752;28;20355;-84
2022/11/15 10:48:13;;;;;;;;;;;;;;;13.36;70.57;101924.38;5071156;28;19909;-85
2022/11/15 10:50:40;;;;;;;;;;;;;;;13.47;69.95;101925.94;5074006;28;20294;-85
2022/11/15 10:53:12;;;;;;;;;;;;;;;13.41;70.07;101923.81;5054253;28;19943;-85
2022/11/15 10:55:37;;;;;;;;;;;;;;;13.47;69.94;101914.53;5068942;28;19966;-85
2022/11/15 10:58:19;;;;;;;;;;;;;;;13.43;70.33;101913.44;5065870;28;20347;-83
2022/11/15 11:00:45;;;;;;;;;;;;;;;13.52;69.86;101905.22;5059581;28;19915;-85
2022/11/15 11:03:26;;;;;;;;;;;;;;;13.40;70.14;101903.66;5073881;28;19908;-84
2022/11/15 11:06:02;;;;;;;;;;;;;;;13.46;70.09;101902.22;5070328;28;20382;-85
2022/11/15 11:08:28;;;;;;;;;;;;;;;13.40;70.23;101893.16;5066375;28;20390;-85
2022/11/15 11:10:54;;;;;;;;;;;;;;;13.45;70.00;101890.81;5074787;28;19956;-83
2022/11/15 11:13:24;;;;;;;;;;;;;;;13.57;69.69;101893.28;5084138;28;20385;-88
2022/11/15 11:16:10;;;;;;;;;;;;;;;13.55;69.94;101890.56;5070942;28;19958;-87
2022/11/15 11:18:54;;;;;;;;;;;;;;;13.51;70.04;101877.16;5055091;28;19908;-86
2022/11/15 11:21:25;;;;;;;;;;;;;;;13.54;69.98;101879.97;5074752;28;19916;-86
2022/11/15 11:23:57;;;;;;;;;;;;;;;13.46;70.45;101881.22;5073797;28;20033;-85
2022/11/15 11:26:30;;;;;;;;;;;;;;;13.47;70.31;101869.94;5073568;28;19908;-85
2022/11/15 11:29:04;;;;;;;;;;;;;;;13.47;70.10;101862.94;5075628;28;19915;-86
2022/11/15 11:31:29;;;;;;;;;;;;;;;13.62;69.79;101853.34;5087394;28;19934;-85
2022/11/15 11:33:58;;;;;;;;;;;;;;;13.59;69.83;101860.16;5098530;28;19948;-86
2022/11/15 11:36:42;;;;;;;;;;;;;;;13.56;69.88;101846.84;5082758;28;19999;-86
2022/11/15 11:39:19;;;;;;;;;;;;;;;13.43;70.36;101853.09;5079065;28;19908;-86
2022/11/15 11:41:51;;;;;;;;;;;;;;;13.50;69.97;101850.00;5075910;28;19908;-86
2022/11/15 11:44:25;;;;;;;;;;;;;;;13.60;69.85;101846.22;5074682;28;19966;-87
2022/11/15 11:46:54;;;;;;;;;;;;;;;13.60;69.92;101828.75;5079059;28;19908;-87
2022/11/15 11:49:31;;;;;;;;;;;;;;;13.56;69.86;101829.38;5074230;28;20385;-87
2022/11/15 11:52:17;;;;;;;;;;;;;;;13.49;70.23;101840.34;5073699;28;19961;-88
2022/11/15 11:54:45;;;;;;;;;;;;;;;13.47;70.32;101833.19;5053904;28;20003;-87
2022/11/15 11:57:14;;;;;;;;;;;;;;;13.49;70.46;101827.22;5069824;28;19916;-86
2022/11/15 11:59:40;;;;;;;;;;;;;;;13.49;70.38;101826.31;5072455;28;20007;-86
2022/11/15 12:02:16;;;;;;;;;;;;;;;13.51;70.30;101822.97;5074243;28;20011;-86
2022/11/15 12:04:44;;;;;;;;;;;;;;;13.52;70.53;101827.38;5073337;28;19915;-86
2022/11/15 12:07:17;;;;;;;;;;;;;;;13.67;69.68;101821.22;5072884;28;19998;-86
2022/11/15 12:09:59;;;;;;;;;;;;;;;13.63;69.87;101812.25;5074383;28;19928;-85
2022/11/15 12:12:24;;;;;;;;;;;;;;;13.67;69.81;101810.72;5056204;28;19909;-88
2022/11/15 12:14:57;;;;;;;;;;;;;;;13.62;69.98;101808.72;5065447;28;19920;-87
2022/11/15 12:17:24;;;;;;;;;;;;;;;13.78;69.39;101801.78;5056899;28;19978;-87
2022/11/15 12:19:49;;;;;;;;;;;;;;;13.81;69.34;101802.81;5069245;28;20007;-87
2022/11/15 12:22:28;;;;;;;;;;;;;;;13.76;69.48;101787.66;5063696;28;20381;-87
2022/11/15 12:25:06;;;;;;;;;;;;;;;13.74;69.51;101798.06;5072260;28;19965;-87
2022/11/15 12:27:34;;;;;;;;;;;;;;;13.81;69.34;101788.81;5073777;28;20422;-87
2022/11/15 12:30:04;;;;;;;;;;;;;;;13.80;69.45;101774.78;5072319;28;20415;-87
2022/11/15 12:32:34;;;;;;;;;;;;;;;13.94;68.92;101779.91;5072249;28;19944;-87
2022/11/15 12:35:00;;;;;;;;;;;;;;;13.86;69.14;101776.81;5072166;28;20320;-86
2022/11/15 12:37:37;;;;;;;;;;;;;;;13.87;69.04;101775.13;5064017;28;19909;-86
2022/11/15 12:40:09;;;;;;;;;;;;;;;13.83;69.14;101777.56;5084918;28;20483;-86
2022/11/15 12:42:37;;;;;;;;;;;;;;;13.78;69.40;101773.78;5064542;28;19909;-86
2022/11/15 12:45:03;;;;;;;;;;;;;;;13.88;69.16;101779.56;5067712;28;19916;-85
2022/11/15 12:47:29;;;;;;;;;;;;;;;13.72;69.63;101770.81;5074313;28;19920;-87